createdAt,value
2022-12-31T00:04:52.080Z,99566.59
2022-12-31T00:10:00.409Z,99567.77
2022-12-31T00:15:09.692Z,99561.44
2022-12-31T00:20:18.399Z,99557.19
2022-12-31T00:25:27.744Z,99557.41
2022-12-31T00:30:35.909Z,99560.71
2022-12-31T00:35:43.954Z,99560.33
2022-12-31T00:40:52.826Z,99550.69
2022-12-31T00:46:01.083Z,99548.86
2022-12-31T00:51:11.618Z,99532.95
2022-12-31T00:56:22.702Z,99525.91
2022-12-31T01:01:33.291Z,99521.52
2022-12-31T01:06:42.155Z,99505.32
2022-12-31T01:11:51.975Z,99491.42
2022-12-31T01:17:00.174Z,99468.30
2022-12-31T01:22:08.349Z,99461.65
2022-12-31T01:27:16.706Z,99449.04
2022-12-31T01:32:23.875Z,99429.10
2022-12-31T01:37:32.099Z,99436.77
2022-12-31T01:42:40.013Z,99423.64
2022-12-31T01:47:51.755Z,99416.63
2022-12-31T01:53:03.908Z,99416.40
2022-12-31T01:58:17.079Z,99423.83
2022-12-31T02:03:28.186Z,99429.02
2022-12-31T02:08:41.987Z,99431.90
2022-12-31T02:13:56.522Z,99412.14
2022-12-31T02:19:20.451Z,99399.33
2022-12-31T02:24:59.246Z,99389.16
2022-12-31T02:30:23.812Z,99380.03
2022-12-31T02:35:35.362Z,99381.77
2022-12-31T02:40:43.783Z,99398.14
2022-12-31T02:45:59.122Z,99405.28
2022-12-31T02:51:22.992Z,99399.14
2022-12-31T02:56:40.208Z,99393.68
2022-12-31T03:02:12.955Z,99390.52
2022-12-31T03:07:25.335Z,99387.98
2022-12-31T03:12:49.988Z,99374.16
2022-12-31T03:18:03.044Z,99366.95
2022-12-31T03:23:14.788Z,99361.17
2022-12-31T03:28:25.097Z,99370.21
2022-12-31T03:33:38.249Z,99368.98
2022-12-31T03:38:51.201Z,99364.77
2022-12-31T03:44:00.908Z,99357.73
2022-12-31T03:49:09.972Z,99350.69
2022-12-31T03:54:18.173Z,99342.92
2022-12-31T03:59:26.302Z,99332.71
2022-12-31T04:04:35.668Z,99332.23
2022-12-31T04:09:43.737Z,99329.83
2022-12-31T04:14:51.863Z,99325.86
2022-12-31T04:20:00.172Z,99319.43
2022-12-31T04:25:11.834Z,99321.05
2022-12-31T04:30:19.056Z,99331.55
2022-12-31T04:35:27.464Z,99336.46
2022-12-31T04:40:35.705Z,99325.49
2022-12-31T04:45:43.782Z,99317.87
2022-12-31T04:50:51.960Z,99320.09
2022-12-31T04:56:00.118Z,99312.29
2022-12-31T05:01:08.887Z,99312.53
2022-12-31T05:06:17.903Z,99302.14
2022-12-31T05:11:26.197Z,99299.23
2022-12-31T05:16:34.385Z,99305.95
2022-12-31T05:21:42.525Z,99300.31
2022-12-31T05:26:50.582Z,99304.11
2022-12-31T05:31:58.770Z,99309.60
2022-12-31T05:37:07.381Z,99311.08
2022-12-31T05:42:17.263Z,99311.02
2022-12-31T05:47:25.548Z,99309.05
2022-12-31T05:52:33.732Z,99317.90
2022-12-31T05:57:41.322Z,99320.30
2022-12-31T06:02:49.592Z,99323.55
2022-12-31T06:07:57.888Z,99322.59
2022-12-31T06:13:06.322Z,99331.08
2022-12-31T06:18:16.686Z,99337.85
2022-12-31T06:23:24.925Z,99338.67
2022-12-31T06:28:33.122Z,99338.64
2022-12-31T06:33:41.520Z,99338.81
2022-12-31T06:38:50.533Z,99334.94
2022-12-31T06:43:57.773Z,99326.35
2022-12-31T06:49:07.462Z,99328.07
2022-12-31T06:54:15.940Z,99329.79
2022-12-31T06:59:31.933Z,99325.56
2022-12-31T07:05:15.949Z,99331.30
2022-12-31T07:10:35.056Z,99326.42
2022-12-31T07:16:01.167Z,99343.42
2022-12-31T07:21:15.107Z,99353.86
2022-12-31T07:26:37.298Z,99362.23
2022-12-31T07:31:59.861Z,99366.64
2022-12-31T07:37:15.913Z,99362.08
2022-12-31T07:42:30.784Z,99373.46
2022-12-31T07:47:40.260Z,99375.02
2022-12-31T07:52:49.219Z,99374.66
2022-12-31T07:58:03.028Z,99377.59
2022-12-31T08:03:27.972Z,99370.92
2022-12-31T08:08:44.983Z,99374.39
2022-12-31T08:13:54.530Z,99384.84
2022-12-31T08:19:03.551Z,99393.16
2022-12-31T08:24:19.645Z,99399.56
2022-12-31T08:29:42.470Z,99388.84
2022-12-31T08:35:03.304Z,99392.08
2022-12-31T08:40:21.664Z,99387.10
2022-12-31T08:45:38.886Z,99380.09
2022-12-31T08:50:48.033Z,99390.69
2022-12-31T08:56:03.946Z,99391.85
2022-12-31T09:01:15.675Z,99396.89
2022-12-31T09:06:29.778Z,99409.23
2022-12-31T09:11:50.216Z,99415.40
2022-12-31T09:17:06.400Z,99416.52
2022-12-31T09:22:16.496Z,99404.11
2022-12-31T09:27:29.914Z,99392.85
2022-12-31T09:32:48.680Z,99405.59
2022-12-31T09:38:09.502Z,99401.33
2022-12-31T09:44:06.067Z,99400.71
2022-12-31T09:49:43.922Z,99393.74
2022-12-31T09:55:02.817Z,99382.56
2022-12-31T10:00:22.046Z,99382.48
2022-12-31T10:05:47.610Z,99366.99
2022-12-31T10:10:59.418Z,99347.41
2022-12-31T10:16:33.501Z,99346.48
2022-12-31T10:21:56.641Z,99341.42
2022-12-31T10:27:29.151Z,99349.92
2022-12-31T10:32:44.221Z,99354.22
2022-12-31T10:38:03.645Z,99324.32
2022-12-31T10:43:52.254Z,99296.52
2022-12-31T10:49:28.885Z,99292.19
2022-12-31T10:55:15.131Z,99299.27
2022-12-31T11:00:25.057Z,99299.51
2022-12-31T11:06:32.656Z,99287.84
2022-12-31T11:11:49.346Z,99268.09
2022-12-31T11:17:14.460Z,99263.96
2022-12-31T11:22:47.448Z,99262.15
2022-12-31T11:28:25.178Z,99255.95
2022-12-31T11:33:50.156Z,99254.89
2022-12-31T11:39:30.815Z,99250.41
2022-12-31T11:44:52.784Z,99244.67
2022-12-31T11:50:20.034Z,99240.18
2022-12-31T11:55:54.264Z,99234.48
2022-12-31T12:01:07.355Z,99222.04
2022-12-31T12:06:18.668Z,99215.81
2022-12-31T12:11:33.097Z,99213.86
2022-12-31T12:16:42.149Z,99210.43
2022-12-31T12:21:51.613Z,99197.00
2022-12-31T12:27:00.717Z,99175.55
2022-12-31T12:32:17.920Z,99163.37
2022-12-31T12:37:36.506Z,99163.44
2022-12-31T12:42:52.833Z,99149.77
2022-12-31T12:48:04.254Z,99148.41
2022-12-31T12:53:28.355Z,99138.36
2022-12-31T12:58:51.903Z,99149.98
2022-12-31T13:04:35.779Z,99149.64
2022-12-31T13:09:57.526Z,99137.55
2022-12-31T13:15:15.114Z,99144.85
2022-12-31T13:20:30.283Z,99144.13
2022-12-31T13:25:50.687Z,99129.58
2022-12-31T13:31:06.814Z,99144.17
2022-12-31T13:36:19.025Z,99147.00
2022-12-31T13:41:33.495Z,99136.86
2022-12-31T13:46:46.866Z,99137.69
2022-12-31T13:52:00.652Z,99135.83
2022-12-31T13:57:20.682Z,99141.81
2022-12-31T14:02:38.957Z,99157.81
2022-12-31T14:07:53.426Z,99155.34
2022-12-31T14:13:07.783Z,99156.30
2022-12-31T14:18:22.742Z,99155.25
2022-12-31T14:23:42.238Z,99146.80
2022-12-31T14:29:01.767Z,99149.05
2022-12-31T14:34:14.634Z,99166.83
2022-12-31T14:39:37.838Z,99163.92
2022-12-31T14:45:00.114Z,99157.78
2022-12-31T14:50:12.097Z,99160.80
2022-12-31T14:55:29.350Z,99172.59
2022-12-31T15:00:40.985Z,99175.95
2022-12-31T15:05:59.818Z,99155.94
2022-12-31T15:11:33.325Z,99131.40
2022-12-31T15:16:55.487Z,99122.41
2022-12-31T15:22:14.462Z,99131.20
2022-12-31T15:27:36.436Z,99136.13
2022-12-31T15:32:48.942Z,99137.75
2022-12-31T15:38:05.365Z,99138.00
2022-12-31T15:43:20.116Z,99150.39
2022-12-31T15:48:33.952Z,99144.36
2022-12-31T15:53:44.000Z,99149.73
2022-12-31T15:58:59.466Z,99141.84
2022-12-31T16:04:09.755Z,99150.89
2022-12-31T16:09:27.045Z,99145.59
2022-12-31T16:14:41.123Z,99153.55
2022-12-31T16:19:49.352Z,99156.96
2022-12-31T16:25:29.780Z,99145.70
2022-12-31T16:30:31.206Z,99147.61
2022-12-31T16:35:40.162Z,99130.89
2022-12-31T16:41:10.825Z,99133.57
2022-12-31T16:46:26.931Z,99144.55
2022-12-31T16:51:39.497Z,99151.27
2022-12-31T16:56:47.928Z,99138.92
2022-12-31T17:01:58.221Z,99139.27
2022-12-31T17:07:39.442Z,99137.85
2022-12-31T17:13:26.814Z,99138.76
2022-12-31T17:18:23.705Z,99139.53
2022-12-31T17:23:34.884Z,99141.92
2022-12-31T17:28:47.996Z,99144.58
2022-12-31T17:34:06.287Z,99141.81
2022-12-31T17:39:24.532Z,99149.13
2022-12-31T17:44:34.412Z,99157.51
2022-12-31T17:49:45.201Z,99163.64
2022-12-31T17:54:53.980Z,99170.35
2022-12-31T18:00:05.895Z,99164.30
2022-12-31T18:05:23.429Z,99151.01
2022-12-31T18:10:36.960Z,99159.18
2022-12-31T18:15:45.528Z,99174.27
2022-12-31T18:20:56.489Z,99168.76
2022-12-31T18:26:05.367Z,99162.20
2022-12-31T18:31:18.883Z,99149.42
2022-12-31T18:36:29.761Z,99164.77
2022-12-31T18:41:43.211Z,99157.33
2022-12-31T18:46:51.543Z,99157.23
2022-12-31T18:52:01.565Z,99172.32
2022-12-31T18:57:11.235Z,99186.36
2022-12-31T19:02:22.457Z,99174.52
2022-12-31T19:07:29.606Z,99180.07
2022-12-31T19:12:37.709Z,99180.86
2022-12-31T19:17:46.741Z,99170.44
2022-12-31T19:22:54.641Z,99171.39
2022-12-31T19:28:02.720Z,99173.67
2022-12-31T19:33:10.903Z,99174.63
2022-12-31T19:38:23.585Z,99191.73
2022-12-31T19:43:32.024Z,99195.98
2022-12-31T19:48:40.783Z,99205.27
2022-12-31T19:53:50.971Z,99213.74
2022-12-31T19:58:59.255Z,99226.61
2022-12-31T20:04:07.796Z,99225.53
2022-12-31T20:09:18.396Z,99216.41
2022-12-31T20:14:27.298Z,99208.73
2022-12-31T20:19:36.408Z,99213.58
2022-12-31T20:24:44.798Z,99214.13
2022-12-31T20:29:53.525Z,99213.52
2022-12-31T20:35:01.678Z,99211.41
2022-12-31T20:40:11.820Z,99207.05
2022-12-31T20:45:20.310Z,99204.38
2022-12-31T20:50:28.456Z,99215.14
2022-12-31T20:55:39.041Z,99222.98
2022-12-31T21:00:51.984Z,99221.42
2022-12-31T21:06:01.001Z,99223.91
2022-12-31T21:11:32.058Z,99221.25
2022-12-31T21:16:40.984Z,99212.66
2022-12-31T21:21:50.237Z,99212.79
2022-12-31T21:27:00.181Z,99202.92
2022-12-31T21:32:08.655Z,99190.60
2022-12-31T21:37:17.887Z,99191.79
2022-12-31T21:42:26.594Z,99188.10
2022-12-31T21:47:51.803Z,99185.23
2022-12-31T21:53:00.073Z,99190.95
2022-12-31T22:03:37.342Z,99193.27
2022-12-31T22:08:47.955Z,99195.16
2022-12-31T22:13:57.090Z,99188.73
2022-12-31T22:19:05.443Z,99184.95
2022-12-31T22:24:14.292Z,99174.03
2022-12-31T22:29:24.004Z,99163.50
2022-12-31T22:34:31.173Z,99165.59
2022-12-31T22:39:43.242Z,99156.05
2022-12-31T22:44:52.884Z,99164.02
2022-12-31T22:50:01.088Z,99168.50
2022-12-31T22:55:10.581Z,99171.00
2022-12-31T23:00:20.087Z,99161.59
2022-12-31T23:05:29.023Z,99148.48
2022-12-31T23:10:52.112Z,99149.31
2022-12-31T23:16:18.320Z,99149.03
2022-12-31T23:21:43.173Z,99143.13
2022-12-31T23:26:51.738Z,99143.35
2022-12-31T23:32:00.048Z,99150.27
2022-12-31T23:37:08.873Z,99154.70
2022-12-31T23:42:17.575Z,99154.16
2022-12-31T23:47:25.730Z,99169.35
2022-12-31T23:52:33.931Z,99179.19
2022-12-31T23:57:42.297Z,99171.66
